Aérodrome :
LOGIN :

S'inscrire | Disclaimer

   EN    FR    IT 

 










Légende :    VFR   VFR Marginal   IFR   IFR Intensif   IFR Très Intensif
Visi : 
Plafond : 
>= 8 km
>= 3000ft
5 à 8 km
1000 à 3000 ft
1500m à 5 km
500 à 1000 ft
800 à 1500m
200 à 500 ft
< 800m
< 200 ft
Symboles :   Orages  Brouillard  Fortes neiges  Fortes précipitations  Vent > 20 kt
SIGMETs :   Divers  Orages  Givrage  Turbulence  Onde Orograph.  Cendres Volcan.







- Altitude de l'aérodrome : 183 ft


LIBA - Amendola Foggia

DERNIER METAR :
  • 171655Z 33007KT 9999 -RA OVC025 07/05 Q1013 RMK OVC VIS MIN 9999 WIND THR11 33005KT WIND THR29 /////KT BLU

METARs EXPIRÉS :
  • 171555Z 31007KT 9999 OVC025 07/05 Q1011 RMK OVC VIS MIN 9999 WIND THR11 31005KT WIND THR29 /////KT BLU
  • 171455Z 25011KT 9999 OVC025 07/05 Q1011 RMK OVC VIS MIN 9999 WIND THR11 26011KT WIND THR29 /////KT BLU

TAF TAF LIBA
Valide du 17 à 18h jusqu'au 18 à 03h UTC


171700Z 1718/1803 33010KT 9999 OVC020
TEMPO 1718/1720 30015G25KT 5000 RA BR
BECMG 1720/1722 SCT020 BKN040
Pas de NOTAMs connus pour ce terrain.
1 SIGMET publié pour la FIR Brindisi (LIBB) :
 
Orages noyés dans la masse
LIBB SIGMET 6 VALID 171635/171835 LIIB
LIBB BRINDISI FIR EMBD TS FCST WI N4130 E01628 - N4045 E01524 - N3900 E01636 - N3849 E01900 - N4106 E01855 - N4225 E01612 - N4130 E01628 TOP FL390 MOV SE NC=



MET'MAP, la Météo Aéronautique d'un coup d'oeil ! - Copyright ORBIFLY Décembre 2007 - Disclaimer

ORBIFLY MET'MAP TEAM :

Programmation & Développement : Alexandra Zaïnal
Conception & Développement : Baudouin d'Aumeries
Co-Programmation & Développement : Marc-Olivier Méhu
Soutien technique & logistique : Manuel Goepfert

Contact : metmap@orbifly.com




SOURCES & CREDITS :

   NOAA